Bayan-Ovoo, Mongolia
Current Conditions -  °F | °C
As of 4:00 PM on Saturday 25 Oct 2014 (Local Time) from ZMUB Reporting Station
Clear Clear  
Wind Chill: 26°   Ceiling: Unl
Heat Index: 36°   Visibility: 6mi
Dew Point:   Wind: 16mph
Humidity: 28%   Direction: 330°NNW
Pressure: 30.18"   Gusts: NA
Location:  47.78°N, 112.12°E
Report Text: ZMUB 250800Z 33007MPS 300V010 CAVOK 02/M15 Q1022 NOSIG RMK QFE658.6 27
Loading
Personal Weather Stations






























Interactive Weather Map
Tropical Storm Tracking
New forecast layout! Learn more

10-Day Weather Forecast

Advertisements
Track Severe Weather on mobile